createdAt,value
2023-02-02T00:01:33.928Z,8.77
2023-02-02T00:04:02.480Z,8.13
2023-02-02T00:06:33.329Z,8.43
2023-02-02T00:09:02.958Z,8.77
2023-02-02T00:11:30.873Z,8.63
2023-02-02T00:13:58.834Z,8.30
2023-02-02T00:16:48.809Z,8.60
2023-02-02T00:19:18.548Z,7.93
2023-02-02T00:21:48.161Z,8.73
2023-02-02T00:24:18.837Z,8.30
2023-02-02T00:26:49.100Z,8.57
2023-02-02T00:29:18.831Z,8.33
2023-02-02T00:31:48.854Z,8.70
2023-02-02T00:34:17.538Z,8.77
2023-02-02T00:36:50.410Z,8.37
2023-02-02T00:39:20.302Z,8.60
2023-02-02T00:41:48.968Z,8.70
2023-02-02T00:44:34.342Z,8.13
2023-02-02T00:47:02.243Z,8.73
2023-02-02T00:49:30.133Z,8.63
2023-02-02T00:52:00.257Z,8.90
2023-02-02T00:54:28.325Z,9.00
2023-02-02T00:56:56.411Z,8.47
2023-02-02T00:59:24.339Z,8.40
2023-02-02T01:01:52.375Z,9.03
2023-02-02T01:04:20.403Z,8.37
2023-02-02T01:06:48.317Z,9.20
2023-02-02T01:09:17.595Z,8.37
2023-02-02T01:11:45.522Z,7.73
2023-02-02T01:14:13.449Z,7.33
2023-02-02T01:16:41.424Z,7.40
2023-02-02T01:19:09.386Z,8.03
2023-02-02T01:21:37.650Z,6.93
2023-02-02T01:24:05.789Z,7.23
2023-02-02T01:26:35.071Z,7.27
2023-02-02T01:29:03.064Z,7.50
2023-02-02T01:31:30.989Z,7.67
2023-02-02T01:33:58.937Z,7.17
2023-02-02T01:36:26.822Z,8.10
2023-02-02T01:38:54.722Z,7.70
2023-02-02T01:41:24.699Z,7.43
2023-02-02T01:43:57.622Z,8.00
2023-02-02T01:46:28.619Z,8.93
2023-02-02T01:49:10.969Z,8.47
2023-02-02T01:51:50.310Z,7.87
2023-02-02T01:54:21.921Z,8.47
2023-02-02T01:56:55.795Z,8.33
2023-02-02T01:59:26.058Z,7.90
2023-02-02T02:01:54.910Z,9.27
2023-02-02T02:04:25.413Z,7.70
2023-02-02T02:06:54.226Z,8.33
2023-02-02T02:09:22.261Z,8.47
2023-02-02T02:11:50.164Z,8.43
2023-02-02T02:14:35.645Z,8.07
2023-02-02T02:17:18.109Z,7.83
2023-02-02T02:20:32.785Z,7.93
2023-02-02T02:23:45.548Z,7.70
2023-02-02T02:26:42.063Z,7.70
2023-02-02T02:29:39.975Z,6.87
2023-02-02T02:32:23.338Z,7.30
2023-02-02T02:34:56.153Z,6.67
2023-02-02T02:37:34.639Z,5.73
2023-02-02T02:40:09.131Z,5.87
2023-02-02T02:42:40.775Z,5.90
2023-02-02T02:45:12.456Z,5.30
2023-02-02T02:47:43.270Z,4.97
2023-02-02T02:50:12.496Z,4.83
2023-02-02T02:52:41.691Z,5.07
2023-02-02T02:55:11.796Z,5.60
2023-02-02T02:57:58.808Z,5.03
2023-02-02T03:00:48.506Z,5.10
2023-02-02T03:03:30.312Z,5.47
2023-02-02T03:06:04.158Z,5.20
2023-02-02T03:08:35.214Z,5.17
2023-02-02T03:11:05.608Z,5.53
2023-02-02T03:13:34.107Z,6.10
2023-02-02T03:16:02.543Z,5.87
2023-02-02T03:18:33.656Z,5.93
2023-02-02T03:21:01.832Z,6.10
2023-02-02T03:23:29.888Z,5.97
2023-02-02T03:25:57.837Z,6.57
2023-02-02T03:28:27.053Z,6.17
2023-02-02T03:30:56.369Z,6.57
2023-02-02T03:33:24.824Z,7.00
2023-02-02T03:35:54.118Z,7.27
2023-02-02T03:38:22.039Z,6.50
2023-02-02T03:40:49.962Z,6.27
2023-02-02T03:43:22.236Z,7.13
2023-02-02T03:45:56.057Z,5.90
2023-02-02T03:48:23.929Z,6.43
2023-02-02T03:50:53.291Z,7.13
2023-02-02T03:53:21.361Z,6.30
2023-02-02T03:55:49.329Z,6.73
2023-02-02T03:58:17.532Z,6.40
2023-02-02T04:00:45.424Z,6.60
2023-02-02T04:03:13.317Z,6.50
2023-02-02T04:05:41.181Z,5.97
2023-02-02T04:08:10.436Z,6.40
2023-02-02T04:10:39.664Z,6.43
2023-02-02T04:13:07.584Z,6.33
2023-02-02T04:15:35.463Z,6.50
2023-02-02T04:18:03.381Z,6.87
2023-02-02T04:20:31.315Z,6.90
2023-02-02T04:22:59.346Z,6.60
2023-02-02T04:25:28.608Z,5.43
2023-02-02T04:27:56.611Z,5.43
2023-02-02T04:30:24.523Z,5.30
2023-02-02T04:32:52.489Z,6.40
2023-02-02T04:35:20.596Z,5.03
2023-02-02T04:37:48.461Z,4.93
2023-02-02T04:40:16.533Z,5.80
2023-02-02T04:42:45.800Z,5.60
2023-02-02T04:45:13.796Z,4.83
2023-02-02T04:47:41.771Z,5.40
2023-02-02T04:50:10.817Z,4.97
2023-02-02T04:52:38.716Z,5.40
2023-02-02T04:55:07.132Z,5.07
2023-02-02T04:57:35.125Z,5.67
2023-02-02T05:00:04.971Z,4.73
2023-02-02T05:02:32.887Z,5.00
2023-02-02T05:05:00.876Z,4.67
2023-02-02T05:07:28.949Z,5.80
2023-02-02T05:09:56.865Z,4.87
2023-02-02T05:12:24.907Z,5.27
2023-02-02T05:14:53.055Z,5.60
2023-02-02T05:17:22.303Z,5.23
2023-02-02T05:19:50.379Z,5.63
2023-02-02T05:22:18.263Z,5.10
2023-02-02T05:24:46.634Z,5.53
2023-02-02T05:27:14.561Z,4.83
2023-02-02T05:29:42.497Z,5.50
2023-02-02T05:32:10.439Z,5.30
2023-02-02T05:34:39.707Z,5.17
2023-02-02T05:37:07.596Z,5.53
2023-02-02T05:39:35.464Z,5.40
2023-02-02T05:42:03.519Z,5.23
2023-02-02T05:44:31.569Z,4.73
2023-02-02T05:46:59.509Z,4.30
2023-02-02T05:49:27.560Z,5.63
2023-02-02T05:51:59.043Z,4.67
2023-02-02T05:54:27.004Z,4.63
2023-02-02T05:56:56.033Z,4.47
2023-02-02T05:59:25.159Z,5.37
2023-02-02T06:01:53.087Z,5.23
2023-02-02T06:04:20.995Z,5.37
2023-02-02T06:06:48.939Z,4.73
2023-02-02T06:09:18.195Z,4.97
2023-02-02T06:11:46.382Z,4.97
2023-02-02T06:14:14.410Z,4.70
2023-02-02T06:16:42.304Z,4.87
2023-02-02T06:19:10.248Z,6.17
2023-02-02T06:21:38.172Z,6.20
2023-02-02T06:24:06.772Z,6.53
2023-02-02T06:26:37.386Z,6.23
2023-02-02T06:29:05.611Z,7.60
2023-02-02T06:31:34.483Z,7.27
2023-02-02T06:34:02.569Z,6.43
2023-02-02T06:36:30.711Z,6.50
2023-02-02T06:38:58.944Z,6.87
2023-02-02T06:41:27.143Z,6.00
2023-02-02T06:43:56.436Z,4.80
2023-02-02T06:46:24.492Z,5.00
2023-02-02T06:48:52.464Z,5.03
2023-02-02T06:51:20.667Z,5.73
2023-02-02T06:53:49.307Z,5.27
2023-02-02T06:56:17.589Z,5.27
2023-02-02T06:58:45.744Z,4.60
2023-02-02T07:01:15.939Z,5.03
2023-02-02T07:03:43.950Z,5.10
2023-02-02T07:06:13.659Z,5.80
2023-02-02T07:08:41.704Z,5.00
2023-02-02T07:11:13.158Z,5.37
2023-02-02T07:13:44.534Z,4.57
2023-02-02T07:16:14.318Z,4.70
2023-02-02T07:18:43.445Z,5.40
2023-02-02T07:21:17.917Z,4.77
2023-02-02T07:23:46.142Z,5.30
2023-02-02T07:26:15.092Z,5.50
2023-02-02T07:28:43.171Z,5.40
2023-02-02T07:31:17.200Z,5.97
2023-02-02T07:33:46.364Z,5.90
2023-02-02T07:36:16.408Z,5.63
2023-02-02T07:38:44.951Z,6.53
2023-02-02T07:41:13.135Z,6.57
2023-02-02T07:43:41.492Z,7.33
2023-02-02T07:46:12.835Z,8.77
2023-02-02T07:48:42.369Z,9.53
2023-02-02T07:51:12.781Z,8.93
2023-02-02T07:53:43.918Z,8.40
2023-02-02T07:56:14.145Z,8.90
2023-02-02T07:58:43.278Z,8.43
2023-02-02T08:01:13.708Z,7.40
2023-02-02T08:03:43.934Z,7.40
2023-02-02T08:06:15.566Z,8.27
2023-02-02T08:08:43.645Z,7.87
2023-02-02T08:11:13.173Z,7.80
2023-02-02T08:13:41.708Z,8.33
2023-02-02T08:16:10.829Z,7.77
2023-02-02T08:18:39.567Z,8.30
2023-02-02T08:21:09.806Z,7.50
2023-02-02T08:23:38.220Z,6.43
2023-02-02T08:26:11.910Z,6.43
2023-02-02T08:28:40.636Z,6.37
2023-02-02T08:31:10.797Z,6.70
2023-02-02T08:33:40.026Z,5.90
2023-02-02T08:36:13.668Z,5.77
2023-02-02T08:38:42.051Z,6.50
2023-02-02T08:41:12.562Z,6.63
2023-02-02T08:43:40.972Z,6.40
2023-02-02T08:46:10.963Z,6.50
2023-02-02T08:48:39.491Z,6.87
2023-02-02T08:51:14.430Z,6.87
2023-02-02T08:53:42.519Z,7.43
2023-02-02T08:56:12.599Z,6.47
2023-02-02T08:58:40.824Z,6.37
2023-02-02T09:01:10.545Z,7.63
2023-02-02T09:03:40.219Z,5.73
2023-02-02T09:06:09.832Z,9.00
2023-02-02T09:08:39.392Z,7.93
2023-02-02T09:11:10.116Z,7.50
2023-02-02T09:13:39.458Z,7.37
2023-02-02T09:16:10.776Z,7.33
2023-02-02T09:18:38.876Z,6.77
2023-02-02T09:21:09.051Z,6.60
2023-02-02T09:23:40.104Z,8.87
2023-02-02T09:26:12.316Z,7.60
2023-02-02T09:28:41.028Z,7.33
2023-02-02T09:31:09.884Z,8.90
2023-02-02T09:33:38.481Z,8.77
2023-02-02T09:36:08.488Z,9.20
2023-02-02T09:38:37.082Z,7.60
2023-02-02T09:41:35.853Z,8.63
2023-02-02T09:44:09.858Z,12.40
2023-02-02T09:46:50.200Z,11.63
2023-02-02T09:49:23.669Z,10.17
2023-02-02T09:51:57.931Z,6.63
2023-02-02T09:54:32.355Z,6.73
2023-02-02T09:57:09.884Z,7.20
2023-02-02T09:59:42.764Z,6.97
2023-02-02T10:02:18.633Z,5.23
2023-02-02T10:04:50.027Z,5.07
2023-02-02T10:07:20.568Z,5.50
2023-02-02T10:09:54.268Z,5.53
2023-02-02T10:12:32.730Z,4.97
2023-02-02T10:15:06.491Z,5.57
2023-02-02T10:17:41.769Z,6.33
2023-02-02T10:20:23.854Z,6.13
2023-02-02T10:22:52.347Z,6.50
2023-02-02T10:25:23.662Z,6.40
2023-02-02T10:28:01.416Z,6.37
2023-02-02T10:30:40.334Z,6.17
2023-02-02T10:33:16.582Z,6.03
2023-02-02T10:35:50.993Z,6.43
2023-02-02T10:38:29.652Z,6.07
2023-02-02T10:41:04.062Z,5.90
2023-02-02T10:44:05.225Z,6.40
2023-02-02T10:46:37.854Z,6.87
2023-02-02T10:49:19.139Z,6.57
2023-02-02T10:51:55.358Z,6.33
2023-02-02T10:54:55.877Z,6.83
2023-02-02T10:57:43.677Z,6.93
2023-02-02T11:00:22.984Z,6.40
2023-02-02T11:02:52.724Z,7.27
2023-02-02T11:05:41.318Z,6.73
2023-02-02T11:08:20.886Z,7.30
2023-02-02T11:10:52.999Z,6.57
2023-02-02T11:13:29.726Z,7.10
2023-02-02T11:16:22.564Z,7.87
2023-02-02T11:18:51.002Z,7.70
2023-02-02T11:21:24.571Z,8.23
2023-02-02T11:23:58.119Z,8.47
2023-02-02T11:26:27.369Z,8.43
2023-02-02T11:28:58.337Z,9.53
2023-02-02T11:31:36.858Z,9.77
2023-02-02T11:34:15.337Z,9.90
2023-02-02T11:37:00.045Z,11.50
2023-02-02T11:39:28.485Z,10.13
2023-02-02T11:42:05.003Z,11.00
2023-02-02T11:44:35.615Z,11.03
2023-02-02T11:47:06.323Z,11.27
2023-02-02T11:49:39.975Z,11.40
2023-02-02T11:52:17.724Z,11.03
2023-02-02T11:54:49.181Z,10.57
2023-02-02T11:57:19.725Z,10.90
2023-02-02T11:59:48.851Z,10.13
2023-02-02T12:02:30.428Z,10.50
2023-02-02T12:05:15.027Z,10.00
2023-02-02T12:07:44.513Z,10.20
2023-02-02T12:10:20.386Z,8.97
2023-02-02T12:12:58.255Z,9.40
2023-02-02T12:15:33.896Z,9.43
2023-02-02T12:18:20.752Z,10.00
2023-02-02T12:20:54.699Z,9.07
2023-02-02T12:23:53.309Z,9.40
2023-02-02T12:26:26.811Z,9.07
2023-02-02T12:29:22.154Z,9.90
2023-02-02T12:32:05.819Z,8.83
2023-02-02T12:34:45.643Z,8.97
2023-02-02T12:37:27.003Z,8.53
2023-02-02T12:40:11.144Z,8.33
2023-02-02T12:42:51.164Z,7.77
2023-02-02T12:45:36.107Z,7.70
2023-02-02T12:48:14.684Z,6.97
2023-02-02T12:51:05.056Z,7.57
2023-02-02T12:53:41.153Z,5.97
2023-02-02T12:56:21.372Z,6.50
2023-02-02T12:58:59.557Z,5.13
2023-02-02T13:01:46.032Z,4.57
2023-02-02T13:04:30.263Z,4.23
2023-02-02T13:07:28.120Z,4.10
2023-02-02T13:10:05.517Z,4.30
2023-02-02T13:12:36.701Z,4.33
2023-02-02T13:15:08.853Z,4.90
2023-02-02T13:17:42.648Z,5.53
2023-02-02T13:20:21.416Z,5.27
2023-02-02T13:22:56.248Z,5.27
2023-02-02T13:25:29.649Z,5.10
2023-02-02T13:27:59.765Z,5.37
2023-02-02T13:30:34.232Z,5.23
2023-02-02T13:33:06.347Z,5.53
2023-02-02T13:35:39.357Z,5.90
2023-02-02T13:38:19.344Z,5.53
2023-02-02T13:40:48.372Z,5.90
2023-02-02T13:43:39.843Z,5.27
2023-02-02T13:46:17.511Z,6.10
2023-02-02T13:48:55.894Z,5.20
2023-02-02T13:51:45.406Z,5.70
2023-02-02T13:54:45.760Z,5.33
2023-02-02T13:57:29.092Z,5.57
2023-02-02T14:00:04.460Z,5.53
2023-02-02T14:02:40.926Z,5.47
2023-02-02T14:05:21.267Z,5.90
2023-02-02T14:07:50.203Z,5.40
2023-02-02T14:10:27.679Z,5.53
2023-02-02T14:12:56.805Z,5.43
2023-02-02T14:15:39.425Z,5.00
2023-02-02T14:18:08.185Z,5.17
2023-02-02T14:20:48.145Z,5.20
2023-02-02T14:23:53.453Z,5.37
2023-02-02T14:26:42.679Z,5.03
2023-02-02T14:29:37.058Z,5.53
2023-02-02T14:32:34.386Z,4.77
2023-02-02T14:35:40.727Z,4.90
2023-02-02T14:38:13.568Z,4.50
2023-02-02T14:40:51.687Z,4.33
2023-02-02T14:43:49.628Z,4.77
2023-02-02T14:46:32.965Z,4.17
2023-02-02T14:49:20.527Z,4.33
2023-02-02T14:51:53.091Z,4.27
2023-02-02T14:54:26.414Z,5.13
2023-02-02T14:56:58.893Z,4.37
2023-02-02T14:59:32.689Z,5.10
2023-02-02T15:02:19.501Z,5.27
2023-02-02T15:04:48.300Z,6.13
2023-02-02T15:07:38.973Z,7.63
2023-02-02T15:10:10.127Z,5.37
2023-02-02T15:12:41.636Z,4.57
2023-02-02T15:15:22.473Z,3.37
2023-02-02T15:18:01.385Z,2.80
2023-02-02T15:20:33.097Z,2.57
2023-02-02T15:23:04.721Z,2.80
2023-02-02T15:25:36.907Z,2.67
2023-02-02T15:28:14.993Z,2.50
2023-02-02T15:30:49.032Z,3.00
2023-02-02T15:33:25.604Z,3.50
2023-02-02T15:35:54.732Z,3.70
2023-02-02T15:38:25.462Z,3.67
2023-02-02T15:40:54.852Z,4.23
2023-02-02T15:43:27.915Z,4.07
2023-02-02T15:46:03.560Z,4.07
2023-02-02T15:48:34.774Z,3.63
2023-02-02T15:51:06.731Z,4.80
2023-02-02T15:53:48.176Z,4.77
2023-02-02T15:56:29.294Z,5.17
2023-02-02T15:58:59.413Z,5.03
2023-02-02T16:01:34.202Z,5.10
2023-02-02T16:04:14.929Z,5.07
2023-02-02T16:06:44.225Z,5.47
2023-02-02T16:09:23.473Z,4.40
2023-02-02T16:11:52.182Z,3.70
2023-02-02T16:14:20.784Z,3.43
2023-02-02T16:16:50.496Z,3.87
2023-02-02T16:19:21.802Z,3.70
2023-02-02T16:21:54.478Z,3.33
2023-02-02T16:24:25.274Z,3.60
2023-02-02T16:26:55.260Z,3.60
2023-02-02T16:29:23.764Z,5.10
2023-02-02T16:31:53.323Z,5.03
2023-02-02T16:34:46.686Z,4.93
2023-02-02T16:37:16.866Z,5.00
2023-02-02T16:39:45.855Z,5.57
2023-02-02T16:42:25.540Z,6.00
2023-02-02T16:44:54.345Z,4.30
2023-02-02T16:47:40.569Z,4.23
2023-02-02T16:50:31.542Z,4.60
2023-02-02T16:53:02.930Z,5.10
2023-02-02T16:55:48.865Z,4.70
2023-02-02T16:58:21.609Z,4.60
2023-02-02T17:01:12.253Z,5.27
2023-02-02T17:03:51.982Z,4.83
2023-02-02T17:06:33.178Z,5.10
2023-02-02T17:09:17.896Z,5.00
2023-02-02T17:12:01.857Z,5.13
2023-02-02T17:14:33.689Z,5.20
2023-02-02T17:17:06.964Z,5.80
2023-02-02T17:19:36.241Z,5.50
2023-02-02T17:22:06.318Z,5.77
2023-02-02T17:24:34.700Z,6.73
2023-02-02T17:27:03.357Z,6.00
2023-02-02T17:29:31.508Z,6.37
2023-02-02T17:31:59.642Z,6.47
2023-02-02T17:34:28.797Z,6.17
2023-02-02T17:36:58.192Z,5.93
2023-02-02T17:39:26.092Z,6.97
2023-02-02T17:41:54.043Z,6.13
2023-02-02T17:44:22.070Z,7.80
2023-02-02T17:46:50.169Z,7.10
2023-02-02T17:49:18.077Z,7.63
2023-02-02T17:51:46.146Z,5.67
2023-02-02T17:54:16.697Z,5.90
2023-02-02T17:56:45.123Z,5.73
2023-02-02T17:59:13.408Z,6.27
2023-02-02T18:01:42.879Z,6.17
2023-02-02T18:04:13.652Z,5.67
2023-02-02T18:06:41.896Z,5.77
2023-02-02T18:09:10.649Z,5.93
2023-02-02T18:11:42.443Z,5.57
2023-02-02T18:14:11.023Z,5.07
2023-02-02T18:16:38.919Z,4.70
2023-02-02T18:19:06.953Z,4.93
2023-02-02T18:21:34.942Z,5.13
2023-02-02T18:24:02.859Z,5.43
2023-02-02T18:26:31.718Z,6.40
2023-02-02T18:29:01.160Z,6.10
2023-02-02T18:31:29.339Z,5.30
2023-02-02T18:33:57.568Z,5.33
2023-02-02T18:36:26.124Z,4.80
2023-02-02T18:38:54.761Z,4.93
2023-02-02T18:41:23.596Z,5.37
2023-02-02T18:43:55.029Z,5.17
2023-02-02T18:46:24.452Z,5.07
2023-02-02T18:48:52.399Z,4.90
2023-02-02T18:51:22.111Z,4.90
2023-02-02T18:53:50.197Z,4.93
2023-02-02T18:56:18.600Z,4.93
2023-02-02T18:58:46.555Z,5.20
2023-02-02T19:01:16.576Z,4.80
2023-02-02T19:03:49.963Z,4.97
2023-02-02T19:06:36.866Z,4.57
2023-02-02T19:09:05.119Z,6.17
2023-02-02T19:11:39.059Z,6.27
2023-02-02T19:14:16.732Z,6.20
2023-02-02T19:16:46.481Z,6.17
2023-02-02T19:19:22.887Z,5.50
2023-02-02T19:21:54.333Z,5.70
2023-02-02T19:24:22.687Z,5.43
2023-02-02T19:26:51.470Z,5.40
2023-02-02T19:29:21.962Z,6.20
2023-02-02T19:31:53.964Z,5.80
2023-02-02T19:34:24.138Z,5.70
2023-02-02T19:36:52.497Z,5.57
2023-02-02T19:39:27.216Z,5.77
2023-02-02T19:41:59.740Z,5.67
2023-02-02T19:44:32.250Z,5.60
2023-02-02T19:47:02.854Z,5.17
2023-02-02T19:49:35.536Z,4.73
2023-02-02T19:52:05.330Z,5.33
2023-02-02T19:54:35.749Z,5.33
2023-02-02T19:57:16.037Z,5.93
2023-02-02T19:59:48.754Z,5.60
2023-02-02T20:02:42.535Z,4.90
2023-02-02T20:05:20.284Z,5.07
2023-02-02T20:07:49.365Z,5.00
2023-02-02T20:10:21.538Z,5.07
2023-02-02T20:12:50.076Z,5.27
2023-02-02T20:15:28.566Z,5.30
2023-02-02T20:17:59.080Z,5.43
2023-02-02T20:20:30.808Z,5.80
2023-02-02T20:22:59.118Z,5.77
2023-02-02T20:25:29.183Z,6.27
2023-02-02T20:27:59.053Z,6.70
2023-02-02T20:30:30.841Z,6.20
2023-02-02T20:33:01.692Z,6.77
2023-02-02T20:35:42.670Z,6.37
2023-02-02T20:38:23.524Z,6.47
2023-02-02T20:40:52.237Z,6.60
2023-02-02T20:43:20.305Z,6.70
2023-02-02T20:45:49.103Z,7.10
2023-02-02T20:48:17.170Z,7.40
2023-02-02T20:50:47.729Z,7.97
2023-02-02T20:53:23.006Z,7.90
2023-02-02T20:55:56.871Z,8.30
2023-02-02T20:58:25.264Z,7.67
2023-02-02T21:00:53.458Z,7.40
2023-02-02T21:03:21.884Z,7.17
2023-02-02T21:05:51.269Z,7.40
2023-02-02T21:08:19.325Z,7.13
2023-02-02T21:10:47.390Z,6.63
2023-02-02T21:13:15.569Z,7.30
2023-02-02T21:15:43.546Z,6.63
2023-02-02T21:18:11.486Z,7.57
2023-02-02T21:20:39.424Z,7.50
2023-02-02T21:23:10.275Z,7.90
2023-02-02T21:25:38.403Z,8.53
2023-02-02T21:28:06.436Z,7.77
2023-02-02T21:30:34.538Z,8.13
2023-02-02T21:33:02.780Z,7.80
2023-02-02T21:35:30.731Z,7.83
2023-02-02T21:38:01.679Z,7.40
2023-02-02T21:40:34.445Z,6.83
2023-02-02T21:43:12.376Z,6.43
2023-02-02T21:45:40.474Z,5.60
2023-02-02T21:48:24.101Z,6.53
2023-02-02T21:50:52.229Z,6.90
2023-02-02T21:53:22.414Z,6.80
2023-02-02T21:55:54.282Z,6.27
2023-02-02T21:58:25.892Z,6.30
2023-02-02T22:00:54.849Z,6.67
2023-02-02T22:03:35.969Z,6.47
2023-02-02T22:06:28.077Z,6.53
2023-02-02T22:09:02.111Z,6.23
2023-02-02T22:11:39.897Z,7.10
2023-02-02T22:14:19.459Z,7.70
2023-02-02T22:16:50.281Z,7.73
2023-02-02T22:19:38.968Z,7.87
2023-02-02T22:22:19.045Z,8.43
2023-02-02T22:24:53.252Z,7.83
2023-02-02T22:27:25.174Z,7.77
2023-02-02T22:29:58.188Z,7.50
2023-02-02T22:32:26.463Z,7.53
2023-02-02T22:34:54.353Z,6.83
2023-02-02T22:37:22.363Z,6.73
2023-02-02T22:39:50.251Z,7.30
2023-02-02T22:42:18.484Z,6.57
2023-02-02T22:44:48.295Z,6.80
2023-02-02T22:47:16.254Z,5.93
2023-02-02T22:49:44.160Z,6.40
2023-02-02T22:52:12.116Z,7.43
2023-02-02T22:54:40.045Z,7.10
2023-02-02T22:57:07.949Z,6.83
2023-02-02T22:59:35.804Z,6.27
2023-02-02T23:02:05.119Z,7.10
2023-02-02T23:04:33.046Z,5.67
2023-02-02T23:07:01.000Z,6.13
2023-02-02T23:09:28.903Z,6.87
2023-02-02T23:11:56.831Z,6.03
2023-02-02T23:14:24.779Z,6.37
2023-02-02T23:16:52.680Z,7.33
2023-02-02T23:19:21.991Z,7.83
2023-02-02T23:21:49.925Z,8.13
2023-02-02T23:24:17.817Z,7.90
2023-02-02T23:26:45.720Z,8.47
2023-02-02T23:29:13.602Z,8.77
2023-02-02T23:31:41.600Z,8.33
2023-02-02T23:34:09.608Z,8.70
2023-02-02T23:36:38.934Z,8.37
2023-02-02T23:39:06.922Z,8.67
2023-02-02T23:41:34.844Z,8.57
2023-02-02T23:44:02.743Z,8.30
2023-02-02T23:46:31.514Z,7.77
2023-02-02T23:49:00.687Z,7.20
2023-02-02T23:51:28.673Z,7.10
2023-02-02T23:53:58.234Z,7.37
2023-02-02T23:56:26.255Z,6.83
2023-02-02T23:58:54.298Z,6.50
